Time;durP1;ratioP1;P1;durP2;ratioP2;P2;SDS_P1;SDS_P2;PMS_P1;PMS_P2;Temp;Humidity;BMP_temperature;BMP_pressure;BME280_temperature;BME280_humidity;BME280_pressure;Samples;Min_cycle;Max_cycle;Signal;HPM_P1;HPM_P2
2022/04/02 00:01:16;;;;;;;9.90;2.15;;;;;;;8.31;55.51;98510.25;4956221;29;20039;-85
2022/04/02 00:03:42;;;;;;;10.07;1.77;;;;;;;8.35;54.19;98522.03;4962091;28;20062;-86
2022/04/02 00:06:07;;;;;;;11.52;1.67;;;;;;;8.41;53.03;98500.13;4961739;28;20095;-86
2022/04/02 00:08:34;;;;;;;12.40;2.30;;;;;;;8.50;52.71;98498.94;4938967;29;20380;-84
2022/04/02 00:11:00;;;;;;;12.65;1.55;;;;;;;8.46;52.79;98491.59;4922578;29;20083;-85
2022/04/02 00:13:26;;;;;;;10.77;1.92;;;;;;;8.41;53.22;98494.84;4938140;29;20098;-84
2022/04/02 00:15:52;;;;;;;15.10;2.03;;;;;;;8.34;53.55;98494.00;4938510;29;20122;-85
2022/04/02 00:18:17;;;;;;;7.65;1.60;;;;;;;8.31;53.93;98497.03;4937769;29;20046;-85
2022/04/02 00:20:43;;;;;;;10.35;1.80;;;;;;;8.34;54.50;98499.28;4920851;29;20055;-89
2022/04/02 00:25:52;;;;;;;13.60;1.85;;;;;;;8.32;55.05;98493.38;4938213;29;20047;-86
2022/04/02 00:28:18;;;;;;;11.52;2.13;;;;;;;8.28;55.03;98505.34;4937433;29;20024;-86
2022/04/02 00:30:43;;;;;;;13.98;2.13;;;;;;;8.22;55.38;98511.38;4937147;29;20391;-85
2022/04/02 00:33:12;;;;;;;12.50;2.65;;;;;;;8.15;54.92;98510.53;4920027;29;20051;-86
2022/04/02 00:35:44;;;;;;;7.80;1.83;;;;;;;8.24;55.54;98509.38;4937235;29;20499;-86
2022/04/02 00:38:10;;;;;;;12.82;1.75;;;;;;;8.27;54.46;98520.34;4936755;29;20499;-85
2022/04/02 00:40:37;;;;;;;13.48;1.77;;;;;;;8.22;54.23;98519.28;4904463;29;20095;-85
2022/04/02 00:43:04;;;;;;;6.50;1.45;;;;;;;8.13;54.08;98518.63;4937440;29;20047;-87
2022/04/02 00:45:30;;;;;;;14.15;1.83;;;;;;;8.11;54.23;98514.56;4937054;29;20110;-87
2022/04/02 00:47:55;;;;;;;10.63;1.95;;;;;;;8.09;55.40;98511.31;4937206;29;20127;-89
2022/04/02 00:50:21;;;;;;;21.45;2.63;;;;;;;8.08;54.29;98514.97;4920228;29;20032;-86
2022/04/02 00:52:47;;;;;;;9.73;1.83;;;;;;;8.00;54.59;98512.47;4920352;29;20101;-88
2022/04/02 00:55:14;;;;;;;9.90;2.22;;;;;;;7.87;55.43;98499.22;4920279;29;20043;-89
2022/04/02 00:57:39;;;;;;;12.45;2.22;;;;;;;7.76;53.76;98498.75;4937333;29;20032;-88
2022/04/02 01:00:06;;;;;;;12.48;1.90;;;;;;;7.69;54.48;98505.78;4937618;29;20039;-85
2022/04/02 01:02:31;;;;;;;9.73;1.90;;;;;;;7.63;55.04;98501.28;4937346;29;20054;-86
2022/04/02 01:04:57;;;;;;;9.25;1.55;;;;;;;7.55;55.11;98493.56;4937103;29;20480;-85
2022/04/02 01:07:25;;;;;;;9.43;1.70;;;;;;;7.59;55.46;98499.25;4904535;29;20083;-86
2022/04/02 01:09:55;;;;;;;10.52;1.90;;;;;;;7.55;55.12;98504.09;4920111;29;20487;-86
2022/04/02 01:12:25;;;;;;;8.95;1.73;;;;;;;7.63;54.93;98501.28;4937471;29;20047;-85
2022/04/02 01:14:51;;;;;;;10.45;2.60;;;;;;;7.65;55.30;98506.41;4920205;29;20091;-86
2022/04/02 01:17:23;;;;;;;15.20;2.25;;;;;;;7.62;56.12;98510.19;4920303;29;20452;-86
2022/04/02 01:20:09;;;;;;;10.27;1.90;;;;;;;7.55;56.02;98506.72;4920967;29;20043;-87
2022/04/02 01:22:36;;;;;;;13.32;2.42;;;;;;;7.61;55.49;98507.78;4925500;29;20044;-85
2022/04/02 01:25:08;;;;;;;7.93;2.13;;;;;;;7.66;55.46;98515.91;4926381;29;20036;-85
2022/04/02 01:27:44;;;;;;;14.45;1.60;;;;;;;7.50;55.59;98506.47;4930417;29;20055;-82
2022/04/02 01:30:10;;;;;;;12.02;1.70;;;;;;;7.55;56.22;98509.38;4937637;29;20039;-83
2022/04/02 01:32:40;;;;;;;14.32;2.13;;;;;;;7.44;56.10;98516.97;4938925;29;20028;-84
2022/04/02 01:35:10;;;;;;;6.95;1.80;;;;;;;7.46;56.09;98518.41;4931871;29;20066;-88
2022/04/02 01:37:38;;;;;;;14.60;1.80;;;;;;;7.60;55.77;98511.41;4924187;29;20035;-88
2022/04/02 01:40:07;;;;;;;11.15;1.88;;;;;;;7.59;55.58;98507.16;4922969;29;20040;-86
2022/04/02 01:42:42;;;;;;;9.35;2.63;;;;;;;7.64;55.02;98508.22;4920043;29;20039;-86
2022/04/02 01:45:11;;;;;;;17.88;1.92;;;;;;;7.70;54.29;98512.72;4920037;29;20119;-87
2022/04/02 01:47:46;;;;;;;12.13;1.83;;;;;;;7.49;55.95;98515.38;4919629;29;20428;-86
2022/04/02 01:50:12;;;;;;;18.10;1.95;;;;;;;7.34;56.09;98506.75;4920137;29;20122;-86
2022/04/02 01:52:41;;;;;;;5.90;1.45;;;;;;;7.42;56.30;98503.19;4919673;29;20118;-86
2022/04/02 01:55:12;;;;;;;14.32;2.00;;;;;;;7.32;57.17;98506.16;4920305;29;20063;-86
2022/04/02 01:57:42;;;;;;;10.38;1.85;;;;;;;7.34;57.21;98508.56;4919478;29;20040;-85
2022/04/02 02:00:12;;;;;;;9.38;2.13;;;;;;;7.26;57.70;98501.63;4919925;29;20039;-86
2022/04/02 02:02:40;;;;;;;14.15;1.83;;;;;;;7.09;58.24;98489.75;4936453;29;20078;-89
2022/04/02 02:05:07;;;;;;;12.00;2.20;;;;;;;7.17;58.32;98484.31;4920362;29;20109;-86
2022/04/02 02:07:32;;;;;;;8.43;1.83;;;;;;;7.17;58.33;98489.59;4920347;29;20086;-84
2022/04/02 02:09:58;;;;;;;13.50;2.60;;;;;;;7.08;58.59;98485.47;4919589;29;20604;-85
2022/04/02 02:12:50;;;;;;;10.80;1.90;;;;;;;7.01;58.97;98489.84;4934198;29;20072;-85
2022/04/02 02:15:27;;;;;;;12.55;1.60;;;;;;;6.85;59.78;98485.66;4930548;29;20040;-86
2022/04/02 02:18:02;;;;;;;8.15;1.60;;;;;;;6.78;60.55;98481.34;4943207;29;20067;-85
2022/04/02 02:20:29;;;;;;;19.65;2.08;;;;;;;6.73;60.52;98485.34;4943314;29;20039;-85
2022/04/02 02:22:54;;;;;;;11.10;1.88;;;;;;;6.72;60.84;98486.34;4959634;28;20028;-86
2022/04/02 02:25:21;;;;;;;12.48;2.40;;;;;;;6.58;61.68;98489.84;4942965;29;20055;-87
2022/04/02 02:27:52;;;;;;;14.25;1.70;;;;;;;6.58;62.41;98479.31;4925811;29;20019;-87
2022/04/02 02:30:26;;;;;;;10.60;1.52;;;;;;;6.47;63.06;98473.72;4938715;29;20500;-88
2022/04/02 02:35:50;;;;;;;9.80;1.63;;;;;;;6.26;64.32;98476.31;4938281;29;20399;-90
2022/04/02 02:38:20;;;;;;;11.57;1.95;;;;;;;6.19;64.80;98473.63;4920503;29;20047;-88
2022/04/02 02:40:53;;;;;;;8.38;1.83;;;;;;;6.23;64.66;98477.50;4920395;29;20036;-87
2022/04/02 02:43:26;;;;;;;6.20;1.80;;;;;;;6.22;64.44;98475.88;4937517;29;20068;-86
2022/04/02 02:45:57;;;;;;;14.00;3.05;;;;;;;6.08;65.30;98472.25;4919667;29;20128;-87
2022/04/02 02:48:23;;;;;;;10.77;2.10;;;;;;;5.99;65.25;98477.81;4919669;29;20218;-87
2022/04/02 02:51:30;;;;;;;8.25;2.00;;;;;;;5.95;66.66;98487.06;4904518;29;20048;-86
2022/04/02 02:53:56;;;;;;;14.07;1.90;;;;;;;5.93;67.38;98489.06;4937980;29;20040;-85
2022/04/02 02:56:22;;;;;;;14.45;2.28;;;;;;;5.76;68.40;98484.94;4942275;28;20051;-86
2022/04/02 02:58:49;;;;;;;11.73;2.30;;;;;;;5.69;68.69;98475.16;4959720;28;20092;-84
2022/04/02 03:01:16;;;;;;;10.23;1.75;;;;;;;5.67;69.23;98471.88;4924319;29;20078;-85
2022/04/02 03:03:44;;;;;;;18.73;2.20;;;;;;;5.74;69.41;98485.13;4921203;29;20046;-84
2022/04/02 03:06:14;;;;;;;11.65;2.15;;;;;;;5.74;68.82;98475.41;4921593;29;20103;-84
2022/04/02 03:08:42;;;;;;;5.35;2.08;;;;;;;5.73;68.37;98479.03;4920541;29;20039;-83
2022/04/02 03:11:08;;;;;;;6.80;2.05;;;;;;;5.73;68.17;98484.28;4906506;29;20430;-86
2022/04/02 03:13:37;;;;;;;7.78;1.77;;;;;;;5.81;67.47;98472.06;4906233;29;20028;-85
2022/04/02 03:16:08;;;;;;;8.05;2.00;;;;;;;5.88;67.37;98475.63;4922578;29;20035;-84
2022/04/02 03:18:40;;;;;;;9.93;2.05;;;;;;;5.92;66.62;98476.91;4921712;29;20040;-85
2022/04/02 03:21:10;;;;;;;9.15;1.73;;;;;;;5.98;67.16;98481.44;4920908;29;20106;-86
2022/04/02 03:23:38;;;;;;;9.15;1.67;;;;;;;6.02;67.52;98472.19;4938677;29;20123;-85
2022/04/02 03:26:04;;;;;;;7.43;1.83;;;;;;;5.95;67.44;98466.03;4938993;29;20039;-83
2022/04/02 03:28:36;;;;;;;13.90;1.85;;;;;;;6.00;67.25;98468.94;4926581;29;20040;-83
2022/04/02 03:31:01;;;;;;;10.18;1.73;;;;;;;5.98;67.60;98465.66;4940803;29;20044;-84
2022/04/02 03:33:28;;;;;;;15.02;1.88;;;;;;;6.07;67.63;98473.25;4923700;29;20032;-85
2022/04/02 03:35:58;;;;;;;8.73;1.77;;;;;;;6.38;66.48;98473.03;4924730;29;20051;-84
2022/04/02 03:38:25;;;;;;;15.75;2.05;;;;;;;6.33;66.37;98475.38;4925137;29;20042;-83
2022/04/02 03:40:50;;;;;;;10.00;1.90;;;;;;;6.30;66.66;98475.75;4943298;29;20035;-83
2022/04/02 03:43:16;;;;;;;5.82;1.80;;;;;;;6.32;67.24;98473.78;4942401;29;20044;-85
2022/04/02 03:45:42;;;;;;;13.70;2.50;;;;;;;6.15;68.24;98477.59;4941179;29;20086;-83
2022/04/02 03:48:09;;;;;;;14.45;2.25;;;;;;;6.20;68.54;98486.56;4939994;29;20393;-85
2022/04/02 03:50:39;;;;;;;14.43;2.15;;;;;;;6.11;68.74;98478.97;4922529;29;20631;-87
2022/04/02 03:53:08;;;;;;;9.75;2.05;;;;;;;5.97;69.65;98487.69;4940823;29;20130;-84
2022/04/02 03:55:39;;;;;;;11.90;1.88;;;;;;;5.82;69.91;98481.59;4923148;29;20076;-86
2022/04/02 03:58:15;;;;;;;9.55;2.13;;;;;;;5.82;70.62;98486.84;4922798;29;20176;-86
2022/04/02 04:00:44;;;;;;;8.70;1.85;;;;;;;5.83;71.08;98483.22;4922037;29;20040;-86
2022/04/02 04:03:10;;;;;;;9.73;2.25;;;;;;;5.76;71.38;98490.22;4939640;29;20118;-85
2022/04/02 04:05:42;;;;;;;8.13;1.77;;;;;;;5.82;71.69;98489.47;4922032;29;20043;-87
2022/04/02 04:08:08;;;;;;;7.70;1.70;;;;;;;5.78;72.59;98480.31;4923662;29;20028;-85
2022/04/02 04:10:40;;;;;;;9.10;2.28;;;;;;;5.81;72.44;98485.22;4924836;29;20028;-83
2022/04/02 04:13:05;;;;;;;5.93;1.70;;;;;;;5.78;72.80;98491.66;4922224;29;20103;-86
2022/04/02 04:15:34;;;;;;;10.10;2.50;;;;;;;5.67;73.51;98490.28;4909388;29;20058;-85
2022/04/02 04:18:02;;;;;;;13.85;2.05;;;;;;;5.64;73.97;98490.63;4924618;29;20503;-86
2022/04/02 04:20:29;;;;;;;8.90;1.70;;;;;;;5.56;74.89;98487.28;4938407;29;20044;-86
2022/04/02 04:22:55;;;;;;;9.77;1.95;;;;;;;5.53;75.48;98482.41;4921808;29;20105;-86
2022/04/02 04:25:27;;;;;;;7.40;2.00;;;;;;;5.54;75.17;98479.56;4906338;29;20532;-84
2022/04/02 04:27:54;;;;;;;8.98;1.83;;;;;;;5.54;75.32;98492.72;4921504;29;20786;-86
2022/04/02 04:30:20;;;;;;;7.25;1.70;;;;;;;5.52;75.71;98501.78;4921372;29;20036;-85
2022/04/02 04:32:46;;;;;;;10.27;1.90;;;;;;;5.51;75.18;98500.97;4920755;29;20023;-87
2022/04/02 04:35:12;;;;;;;5.93;1.67;;;;;;;5.51;75.18;98506.22;4920849;29;20591;-86
2022/04/02 04:37:40;;;;;;;9.05;1.80;;;;;;;5.46;76.11;98507.75;4937419;29;20059;-87
2022/04/02 04:40:14;;;;;;;7.20;2.50;;;;;;;5.42;75.89;98514.34;4920820;29;20040;-86
2022/04/02 04:42:42;;;;;;;7.57;1.83;;;;;;;5.43;75.83;98518.63;4921239;29;20039;-87
2022/04/02 04:45:10;;;;;;;9.48;1.67;;;;;;;5.49;75.95;98512.66;4939555;29;20035;-86
2022/04/02 04:47:44;;;;;;;10.25;2.20;;;;;;;5.63;75.62;98517.91;4907466;29;20135;-85
2022/04/02 04:50:11;;;;;;;14.00;2.10;;;;;;;5.63;74.81;98525.78;4930264;29;20074;-87
2022/04/02 04:52:37;;;;;;;8.15;2.10;;;;;;;5.59;74.49;98529.78;4921427;29;20452;-84
2022/04/02 04:55:05;;;;;;;13.90;2.63;;;;;;;5.54;74.61;98532.13;4919983;29;20042;-86
2022/04/02 04:57:32;;;;;;;8.00;2.90;;;;;;;5.51;75.58;98543.00;4920516;29;20043;-86
2022/04/02 05:00:06;;;;;;;9.18;1.90;;;;;;;5.59;74.76;98539.47;4920780;29;20035;-85
2022/04/02 05:02:32;;;;;;;11.73;2.25;;;;;;;5.52;75.30;98535.94;4920380;29;20387;-89
2022/04/02 05:05:00;;;;;;;6.85;1.67;;;;;;;5.53;75.50;98551.53;4907404;29;20034;-88
2022/04/02 05:07:26;;;;;;;7.45;2.22;;;;;;;5.52;75.41;98552.53;4922142;29;20036;-90
2022/04/02 05:09:57;;;;;;;6.13;1.73;;;;;;;5.60;75.32;98549.78;4926255;29;20062;-88
2022/04/02 05:12:23;;;;;;;9.27;2.83;;;;;;;5.68;74.68;98552.38;4913416;29;20611;-87
2022/04/02 05:14:51;;;;;;;9.32;1.88;;;;;;;5.79;74.35;98550.28;4924636;29;20039;-86
2022/04/02 05:17:21;;;;;;;6.70;1.90;;;;;;;5.90;72.70;98552.53;4940135;29;20035;-88
2022/04/02 05:19:53;;;;;;;14.85;1.85;;;;;;;6.02;73.15;98557.16;4909270;29;20031;-91
2022/04/02 05:22:19;;;;;;;7.80;2.10;;;;;;;6.07;72.63;98559.22;4923208;29;20043;-92
2022/04/02 05:24:49;;;;;;;4.78;1.55;;;;;;;6.40;71.03;98565.72;4925692;29;20024;-92
2022/04/02 05:27:16;;;;;;;9.93;2.15;;;;;;;6.57;69.22;98577.69;4933963;29;20050;-93
2022/04/02 05:29:44;;;;;;;11.07;2.28;;;;;;;6.47;69.69;98582.41;4922307;29;20070;-90
2022/04/02 05:32:24;;;;;;;7.68;1.70;;;;;;;6.50;69.06;98592.56;4950480;29;20040;-92
2022/04/02 05:37:26;;;;;;;15.48;2.63;;;;;;;6.56;69.98;98593.69;4901283;29;20424;-88
2022/04/02 05:40:12;;;;;;;7.45;2.10;;;;;;;6.86;68.65;98587.34;4879895;29;20135;-89
2022/04/02 05:42:41;;;;;;;11.27;2.60;;;;;;;6.95;68.08;98588.88;4903676;23;20020;-89
2022/04/02 05:45:09;;;;;;;10.15;2.47;;;;;;;6.87;68.13;98585.50;4936066;29;20047;-86
2022/04/02 05:47:45;;;;;;;11.60;2.42;;;;;;;6.43;69.84;98596.13;4922643;29;20088;-86
2022/04/02 05:50:12;;;;;;;11.48;2.17;;;;;;;6.30;70.62;98602.03;4927647;29;20032;-89
2022/04/02 05:52:38;;;;;;;13.35;2.10;;;;;;;6.63;70.86;98602.44;4915394;29;20072;-89
2022/04/02 05:55:13;;;;;;;7.25;2.22;;;;;;;7.01;68.29;98589.94;4902367;29;20016;-92
2022/04/02 05:57:46;;;;;;;11.10;2.10;;;;;;;7.16;67.93;98599.41;4901468;29;20048;-93
2022/04/02 06:00:35;;;;;;;17.98;2.53;;;;;;;7.12;67.76;98602.63;4918475;29;20099;-89
2022/04/02 06:03:04;;;;;;;13.43;3.38;;;;;;;7.09;67.56;98614.31;4927242;29;20054;-92
2022/04/02 06:05:29;;;;;;;6.07;2.45;;;;;;;7.22;67.15;98619.72;4910058;29;20400;-93
2022/04/02 06:07:56;;;;;;;6.50;1.95;;;;;;;7.06;67.46;98613.91;4924592;29;20032;-92
2022/04/02 06:10:21;;;;;;;8.32;2.85;;;;;;;7.31;66.52;98624.91;4921498;29;20406;-93
2022/04/02 06:12:50;;;;;;;7.75;2.30;;;;;;;7.12;67.30;98627.16;4904181;29;20075;-91
2022/04/02 06:15:16;;;;;;;9.38;2.20;;;;;;;7.05;67.65;98628.06;4906601;29;20052;-90
2022/04/02 06:17:42;;;;;;;8.18;1.95;;;;;;;7.23;67.29;98629.28;4924473;29;20503;-94
2022/04/02 06:20:08;;;;;;;12.52;1.58;;;;;;;7.49;65.71;98643.75;4891767;29;20063;-91
2022/04/02 06:22:38;;;;;;;6.78;1.80;;;;;;;7.79;64.39;98648.66;4893238;29;20040;-91
2022/04/02 06:25:12;;;;;;;4.45;1.45;;;;;;;8.18;62.91;98650.81;4897959;29;20158;-93
2022/04/02 06:27:46;;;;;;;6.38;1.70;;;;;;;8.79;59.41;98654.44;4930756;29;20036;-92
2022/04/02 06:30:20;;;;;;;2.90;1.40;;;;;;;9.16;58.74;98641.78;4911780;29;20544;-93
2022/04/02 06:33:05;;;;;;;5.43;1.63;;;;;;;9.34;58.69;98645.50;4915268;29;20028;-91
2022/04/02 06:58:42;;;;;;;2.95;1.27;;;;;;;13.19;44.98;98675.91;3030895;27;20028;-88
2022/04/02 07:20:40;;;;;;;7.43;1.65;;;;;;;14.20;46.02;98699.81;1349774;23;20347;-87
2022/04/02 07:23:27;;;;;;;10.52;2.03;;;;;;;12.33;50.13;98707.81;4947578;29;20075;-87
2022/04/02 07:26:45;;;;;;;8.25;2.17;;;;;;;13.76;47.48;98704.56;4979212;23;20066;-88
2022/04/02 07:48:09;;;;;;;9.50;1.58;;;;;;;14.23;44.88;98715.34;4919125;29;20052;-91
2022/04/02 07:51:08;;;;;;;4.60;1.58;;;;;;;14.51;43.85;98720.88;4887800;29;20135;-90
2022/04/02 07:53:41;;;;;;;6.95;1.63;;;;;;;14.30;44.85;98716.06;4897765;29;20481;-88
2022/04/02 07:56:14;;;;;;;3.67;1.25;;;;;;;15.85;41.87;98723.16;4891630;29;20088;-88
2022/04/02 07:58:45;;;;;;;6.00;1.55;;;;;;;15.31;43.23;98731.69;4901900;29;20033;-87
2022/04/02 08:01:12;;;;;;;3.97;1.30;;;;;;;15.57;41.13;98739.19;4888443;29;20055;-90
2022/04/02 08:03:43;;;;;;;7.43;1.42;;;;;;;15.09;41.55;98746.69;4889393;29;20040;-89
2022/04/02 08:06:12;;;;;;;3.50;1.50;;;;;;;15.65;40.50;98741.47;4899409;29;20041;-91
2022/04/02 08:08:42;;;;;;;4.72;1.38;;;;;;;15.57;40.19;98746.38;4900250;29;20040;-88
2022/04/02 08:11:38;;;;;;;2.72;1.17;;;;;;;15.36;40.57;98753.13;4869737;29;20382;-91
2022/04/02 08:14:07;;;;;;;6.00;1.20;;;;;;;16.10;39.82;98754.06;4920111;29;20040;-87
2022/04/02 08:16:43;;;;;;;3.67;1.27;;;;;;;15.04;41.52;98749.25;4871283;29;20052;-85
2022/04/02 08:19:10;;;;;;;3.25;1.48;;;;;;;14.88;41.77;98756.13;4903666;29;20121;-89
2022/04/02 08:21:36;;;;;;;3.63;1.20;;;;;;;14.96;41.97;98751.22;4895713;29;20048;-86
2022/04/02 08:24:03;;;;;;;4.10;1.15;;;;;;;15.64;40.43;98752.41;4911628;29;20044;-89
2022/04/02 08:26:35;;;;;;;7.57;1.10;;;;;;;16.67;38.69;98754.78;4899696;29;20051;-88
2022/04/02 08:29:27;;;;;;;1.45;0.93;;;;;;;16.52;38.27;98763.31;4901462;29;20096;-87
2022/04/02 08:32:04;;;;;;;4.40;1.20;;;;;;;15.75;39.11;98768.38;4844580;29;20061;-89
2022/04/02 08:34:49;;;;;;;4.20;1.20;;;;;;;16.00;37.84;98766.19;4886748;29;20032;-85
2022/04/02 08:37:48;;;;;;;4.20;1.30;;;;;;;15.66;39.88;98767.13;4922136;29;20041;-86
2022/04/02 08:40:40;;;;;;;4.95;1.40;;;;;;;15.26;40.52;98774.28;4859785;29;20057;-86
2022/04/02 08:43:11;;;;;;;3.97;1.45;;;;;;;15.42;39.27;98773.53;4940595;29;20063;-87
2022/04/02 08:45:56;;;;;;;4.28;1.25;;;;;;;14.92;40.84;98784.75;4926630;29;20051;-89
2022/04/02 08:48:27;;;;;;;2.40;1.10;;;;;;;15.27;40.68;98791.94;4902235;29;20048;-90
2022/04/02 08:51:13;;;;;;;11.57;1.30;;;;;;;15.44;40.64;98790.16;4915239;29;20044;-89
2022/04/02 08:53:51;;;;;;;4.60;1.75;;;;;;;14.99;39.95;98789.97;4890454;29;20087;-87
2022/04/02 08:56:21;;;;;;;4.03;1.52;;;;;;;14.44;41.43;98792.13;4906665;29;20068;-89
2022/04/02 08:59:09;;;;;;;4.50;1.48;;;;;;;13.52;43.95;98793.38;4903810;29;20119;-92
2022/04/02 09:01:53;;;;;;;5.07;1.55;;;;;;;14.36;43.61;98795.13;4889140;29;20407;-89
2022/04/02 09:04:34;;;;;;;4.13;1.55;;;;;;;14.66;42.02;98795.88;4905581;29;20060;-92
2022/04/02 09:07:19;;;;;;;2.55;1.35;;;;;;;14.32;41.90;98800.06;4905712;29;20039;-88
2022/04/02 09:10:00;;;;;;;16.42;8.05;;;;;;;14.23;42.84;98811.28;4902042;29;20060;-88
2022/04/02 09:12:55;;;;;;;4.18;1.55;;;;;;;15.24;42.28;98808.41;4903803;29;20052;-93
2022/04/02 09:15:54;;;;;;;4.90;1.75;;;;;;;14.67;42.24;98808.16;4893475;29;20473;-95
2022/04/02 09:18:35;;;;;;;7.88;1.80;;;;;;;15.02;41.92;98810.84;4907976;29;20409;-91
2022/04/02 09:21:23;;;;;;;5.43;1.40;;;;;;;15.29;41.21;98816.50;4905226;29;20037;-91
2022/04/02 09:24:22;;;;;;;3.10;1.33;;;;;;;14.77;41.48;98813.75;4872309;29;20051;-93
2022/04/02 09:27:12;;;;;;;2.88;1.33;;;;;;;15.07;41.70;98818.16;4901994;29;20035;-94
2022/04/02 09:29:57;;;;;;;4.53;1.33;;;;;;;15.55;40.38;98818.72;4915561;29;20037;-92
2022/04/02 09:32:48;;;;;;;5.18;1.73;;;;;;;15.73;39.83;98818.56;4915846;29;20084;-93
2022/04/02 09:35:21;;;;;;;5.70;1.80;;;;;;;16.28;39.24;98823.31;4903815;29;20032;-93
2022/04/02 09:37:58;;;;;;;4.05;1.50;;;;;;;16.08;39.39;98825.63;4896391;29;20036;-91
2022/04/02 09:40:35;;;;;;;2.95;1.42;;;;;;;16.74;38.19;98836.47;4911266;29;20041;-92
2022/04/02 09:43:14;;;;;;;2.75;1.00;;;;;;;17.38;33.89;98821.66;4918811;29;20028;-92
2022/04/02 09:46:08;;;;;;;3.40;1.00;;;;;;;16.97;34.64;98825.59;4923035;29;20040;-90
2022/04/02 09:49:08;;;;;;;3.85;1.00;;;;;;;16.67;35.43;98835.03;4889130;29;20047;-90
2022/04/02 09:51:40;;;;;;;2.90;1.35;;;;;;;16.29;36.63;98827.63;4910592;29;20100;-89
2022/04/02 09:54:16;;;;;;;2.47;1.55;;;;;;;16.16;34.93;98838.63;4902189;29;20033;-88
2022/04/02 09:56:53;;;;;;;3.53;1.15;;;;;;;15.86;35.58;98828.16;4901166;29;20048;-91
2022/04/02 09:59:30;;;;;;;5.63;1.35;;;;;;;17.03;33.57;98835.31;4884725;29;20556;-88
2022/04/02 10:02:04;;;;;;;6.07;1.20;;;;;;;17.34;32.81;98833.91;4903762;29;20539;-91
2022/04/02 10:04:38;;;;;;;2.60;1.27;;;;;;;17.62;32.75;98832.16;4894930;29;20036;-91
2022/04/02 10:07:44;;;;;;;5.18;1.20;;;;;;;17.69;31.48;98833.63;4927463;29;20188;-94
2022/04/02 10:10:11;;;;;;;5.30;1.25;;;;;;;17.46;31.08;98834.63;4901014;29;20068;-92
2022/04/02 10:12:44;;;;;;;2.80;1.25;;;;;;;17.66;29.25;98839.47;4923496;29;20036;-89
2022/04/02 10:15:11;;;;;;;4.40;1.00;;;;;;;17.47;30.80;98840.78;4921415;29;20051;-91
2022/04/02 10:17:39;;;;;;;3.25;1.30;;;;;;;17.08;32.37;98831.09;4907712;29;20085;-90
2022/04/02 10:20:07;;;;;;;3.53;1.20;;;;;;;17.99;30.14;98830.47;4898610;29;20496;-93
2022/04/02 10:22:44;;;;;;;2.55;1.00;;;;;;;18.20;29.62;98834.16;4924201;29;20099;-91
2022/04/02 10:25:56;;;;;;;2.95;1.35;;;;;;;17.99;29.48;98843.88;4934388;29;20043;-91
2022/04/02 10:28:32;;;;;;;4.95;1.30;;;;;;;19.64;27.28;98829.44;4935012;29;20040;-89
2022/04/02 10:31:14;;;;;;;3.63;1.17;;;;;;;20.08;27.70;98844.13;4923400;29;20064;-92
2022/04/02 10:33:47;;;;;;;4.07;1.38;;;;;;;20.11;28.84;98849.00;4939402;29;20036;-89
2022/04/02 10:36:27;;;;;;;4.97;1.58;;;;;;;20.72;26.85;98841.03;4919463;29;20096;-93
2022/04/02 10:39:15;;;;;;;2.83;0.95;;;;;;;21.04;26.30;98848.88;4921901;23;20056;-92
2022/04/02 10:42:28;;;;;;;3.13;1.40;;;;;;;20.52;27.12;98849.91;4885865;29;20096;-94
2022/04/02 10:47:47;;;;;;;2.63;1.00;;;;;;;19.87;26.07;98860.47;4631305;27;20044;-91
2022/04/02 10:50:18;;;;;;;2.42;1.10;;;;;;;20.00;26.41;98860.78;4919915;29;20091;-90
2022/04/02 10:52:47;;;;;;;3.58;1.40;;;;;;;19.58;28.44;98866.25;4931026;29;20036;-87
2022/04/02 10:55:40;;;;;;;4.35;1.52;;;;;;;18.29;27.56;98862.19;4908620;29;20497;-90
2022/04/02 10:58:10;;;;;;;3.72;1.40;;;;;;;18.16;29.49;98854.53;4923824;29;20365;-91
2022/04/02 11:00:38;;;;;;;2.25;1.23;;;;;;;17.39;29.43;98849.25;4928029;29;20044;-91
2022/04/02 11:03:26;;;;;;;1.90;1.10;;;;;;;16.60;30.38;98861.94;4914296;29;20103;-93
2022/04/02 11:05:51;;;;;;;3.35;1.50;;;;;;;15.31;32.87;98862.50;4891707;29;20510;-89
2022/04/02 11:08:22;;;;;;;5.47;1.25;;;;;;;15.52;33.25;98859.22;4922870;29;20063;-89
2022/04/02 11:10:49;;;;;;;2.25;1.15;;;;;;;15.81;32.53;98858.25;4923539;29;20040;-91
2022/04/02 11:13:29;;;;;;;2.97;0.82;;;;;;;15.43;32.51;98855.28;4904905;29;20104;-91
2022/04/02 11:15:58;;;;;;;2.63;1.27;;;;;;;15.46;32.41;98855.63;4927572;29;20032;-91
2022/04/02 11:18:27;;;;;;;3.13;1.25;;;;;;;15.19;32.56;98856.31;4912816;29;20059;-90
2022/04/02 11:21:33;;;;;;;6.43;1.50;;;;;;;14.43;33.94;98867.78;4924868;29;20052;-91
2022/04/02 11:24:08;;;;;;;3.25;1.20;;;;;;;14.44;33.62;98856.09;4939177;29;20039;-86
2022/04/02 11:26:42;;;;;;;3.85;1.30;;;;;;;14.43;34.27;98854.47;4943599;29;20067;-88
2022/04/02 11:29:09;;;;;;;4.28;1.60;;;;;;;14.16;35.56;98853.19;4942101;29;20030;-88
2022/04/02 11:31:36;;;;;;;5.30;2.10;;;;;;;13.71;36.02;98861.53;4923139;29;20040;-87
2022/04/02 11:34:08;;;;;;;4.13;1.40;;;;;;;13.65;35.02;98866.94;4934650;29;20012;-88
2022/04/02 11:36:47;;;;;;;4.47;1.70;;;;;;;13.32;35.67;98869.94;4935996;29;20148;-89
2022/04/02 11:39:25;;;;;;;2.60;1.65;;;;;;;13.34;37.28;98866.03;4895042;29;20415;-87
2022/04/02 11:41:57;;;;;;;3.38;1.52;;;;;;;12.93;38.49;98855.94;4914760;29;20500;-91
2022/04/02 11:47:30;;;;;;;3.05;1.50;;;;;;;16.58;31.59;98864.00;4869028;29;20077;-90
2022/04/02 11:50:06;;;;;;;4.63;1.98;;;;;;;17.64;30.77;98863.00;4865812;29;20045;-87
2022/04/02 11:52:53;;;;;;;5.32;1.88;;;;;;;18.45;28.87;98866.63;4871767;29;20053;-90
2022/04/02 11:55:24;;;;;;;6.72;2.13;;;;;;;18.18;28.73;98868.50;4880365;29;20041;-89
2022/04/02 11:58:09;;;;;;;4.75;1.77;;;;;;;17.10;30.24;98858.47;4864470;29;20050;-90
2022/04/02 12:00:40;;;;;;;4.43;1.40;;;;;;;16.15;31.45;98863.72;4858801;29;20045;-88
2022/04/02 12:03:24;;;;;;;2.55;1.02;;;;;;;15.56;31.21;98857.72;4862506;29;20124;-90
2022/04/02 12:05:51;;;;;;;5.45;1.58;;;;;;;14.73;34.97;98857.91;4884954;29;20115;-88
2022/04/02 12:08:31;;;;;;;3.55;1.70;;;;;;;14.39;37.29;98867.44;4886169;29;20083;-86
2022/04/02 12:10:59;;;;;;;2.50;1.55;;;;;;;14.06;37.95;98867.03;4896730;29;20075;-87
2022/04/02 12:13:33;;;;;;;3.83;1.52;;;;;;;13.27;38.28;98859.97;4892336;29;20033;-88
2022/04/02 12:16:13;;;;;;;4.72;1.83;;;;;;;12.68;40.85;98852.47;4883857;29;20073;-88
2022/04/02 12:19:02;;;;;;;8.18;2.20;;;;;;;12.51;41.76;98863.84;4879040;29;20056;-88
2022/04/02 12:21:34;;;;;;;5.57;1.90;;;;;;;12.75;40.83;98847.91;4878876;29;20049;-84
2022/04/02 12:24:01;;;;;;;4.88;1.80;;;;;;;12.67;39.94;98853.50;4891240;29;20082;-87
2022/04/02 12:26:28;;;;;;;6.40;2.20;;;;;;;12.72;40.30;98861.66;4901650;29;20087;-85
2022/04/02 12:29:03;;;;;;;5.15;2.05;;;;;;;12.70;40.88;98850.41;4901563;29;20043;-85
2022/04/02 12:31:34;;;;;;;6.45;2.10;;;;;;;12.49;41.24;98863.25;4910080;29;20139;-84
2022/04/02 12:34:01;;;;;;;5.40;1.88;;;;;;;12.50;41.32;98856.88;4899168;29;20036;-86
2022/04/02 12:36:35;;;;;;;4.88;2.38;;;;;;;12.71;42.69;98865.31;4908573;29;20040;-89
2022/04/02 12:39:08;;;;;;;5.07;2.45;;;;;;;12.78;42.50;98866.09;4924668;29;20062;-89
2022/04/02 12:41:48;;;;;;;15.23;4.72;;;;;;;12.80;38.64;98861.38;4923077;29;20067;-86
2022/04/02 12:44:19;;;;;;;29.98;10.93;;;;;;;12.99;38.53;98862.25;4922135;29;20063;-88
2022/04/02 12:46:46;;;;;;;13.63;6.10;;;;;;;12.79;39.95;98864.25;4901898;29;20095;-86
2022/04/02 12:49:47;;;;;;;9.20;3.28;;;;;;;12.60;40.99;98867.84;4912697;29;20795;-90
2022/04/02 12:52:16;;;;;;;9.52;2.45;;;;;;;13.21;38.77;98873.31;4823568;29;20046;-86
2022/04/02 12:54:55;;;;;;;4.65;1.77;;;;;;;12.98;39.59;98873.09;4852596;29;20041;-90
2022/04/02 12:57:31;;;;;;;8.65;1.90;;;;;;;12.96;37.59;98879.44;4842284;29;20046;-88
2022/04/02 12:59:56;;;;;;;5.15;1.83;;;;;;;12.97;36.54;98869.63;4843070;29;20117;-90
2022/04/02 13:02:25;;;;;;;7.63;1.90;;;;;;;13.22;37.27;98869.63;4858586;29;20045;-83
2022/04/02 13:04:55;;;;;;;3.42;1.52;;;;;;;13.10;37.03;98874.03;4841909;29;20042;-82
2022/04/02 13:07:22;;;;;;;5.70;2.05;;;;;;;12.95;37.70;98872.50;4899819;29;20079;-84
2022/04/02 13:09:51;;;;;;;7.22;2.20;;;;;;;13.02;37.61;98872.44;4923806;29;20033;-84
2022/04/02 13:12:22;;;;;;;22.70;12.82;;;;;;;13.19;37.90;98862.88;4919120;29;20036;-84
2022/04/02 13:15:04;;;;;;;9.27;4.57;;;;;;;13.05;38.72;98865.88;4886193;29;20510;-83
2022/04/02 13:20:28;;;;;;;32.50;15.48;;;;;;;13.25;37.18;98879.84;4917820;29;20040;-81